createdAt,value
2023-02-15T00:01:36.910Z,0.37
2023-02-15T00:04:04.072Z,0.38
2023-02-15T00:06:30.636Z,0.37
2023-02-15T00:08:57.043Z,0.31
2023-02-15T00:11:41.892Z,0.27
2023-02-15T00:14:08.869Z,0.28
2023-02-15T00:16:35.484Z,0.31
2023-02-15T00:19:02.976Z,0.31
2023-02-15T00:21:30.898Z,0.34
2023-02-15T00:23:58.034Z,0.32
2023-02-15T00:26:24.485Z,0.32
2023-02-15T00:28:50.852Z,0.32
2023-02-15T00:31:17.353Z,0.31
2023-02-15T00:33:43.939Z,0.27
2023-02-15T00:36:10.636Z,0.28
2023-02-15T00:38:37.165Z,0.25
2023-02-15T00:41:05.019Z,0.30
2023-02-15T00:43:32.195Z,0.33
2023-02-15T00:45:58.683Z,0.38
2023-02-15T00:48:25.331Z,0.40
2023-02-15T00:50:53.498Z,0.34
2023-02-15T00:53:20.020Z,0.35
2023-02-15T00:55:46.681Z,0.35
2023-02-15T00:58:13.543Z,0.37
2023-02-15T01:00:39.967Z,0.36
2023-02-15T01:03:07.205Z,0.35
2023-02-15T01:05:33.573Z,0.38
2023-02-15T01:08:00.219Z,0.39
2023-02-15T01:10:27.359Z,0.42
2023-02-15T01:12:53.899Z,0.38
2023-02-15T01:15:20.346Z,0.37
2023-02-15T01:17:52.124Z,0.38
2023-02-15T01:20:21.803Z,0.36
2023-02-15T01:22:50.597Z,0.35
2023-02-15T01:25:18.091Z,0.36
2023-02-15T01:27:44.638Z,0.34
2023-02-15T01:30:11.853Z,0.32
2023-02-15T01:32:38.252Z,0.29
2023-02-15T01:35:04.797Z,0.30
2023-02-15T01:37:32.341Z,0.28
2023-02-15T01:39:58.957Z,0.28
2023-02-15T01:42:25.330Z,0.29
2023-02-15T01:44:58.710Z,0.28
2023-02-15T01:47:31.084Z,0.29
2023-02-15T01:50:19.191Z,0.30
2023-02-15T01:52:51.875Z,0.30
2023-02-15T01:55:18.295Z,0.26
2023-02-15T01:57:44.777Z,0.23
2023-02-15T02:00:11.823Z,0.17
2023-02-15T02:02:38.191Z,0.14
2023-02-15T02:05:07.389Z,0.07
2023-02-15T02:07:39.241Z,0.05
2023-02-15T02:10:06.584Z,-0.01
2023-02-15T02:12:33.070Z,-0.10
2023-02-15T02:14:59.445Z,-0.04
2023-02-15T02:17:30.619Z,0.01
2023-02-15T02:20:06.919Z,-0.01
2023-02-15T02:22:54.928Z,-0.03
2023-02-15T02:25:48.682Z,-0.05
2023-02-15T02:28:18.048Z,-0.10
2023-02-15T02:30:59.827Z,-0.11
2023-02-15T02:33:46.664Z,-0.14
2023-02-15T02:36:45.402Z,-0.19
2023-02-15T02:39:26.975Z,-0.27
2023-02-15T02:42:04.033Z,-0.25
2023-02-15T02:44:35.611Z,-0.23
2023-02-15T02:47:16.161Z,-0.22
2023-02-15T02:49:43.538Z,-0.19
2023-02-15T02:52:37.852Z,-0.19
2023-02-15T02:55:17.720Z,-0.20
2023-02-15T02:57:59.402Z,-0.20
2023-02-15T03:00:26.998Z,-0.16
2023-02-15T03:02:59.381Z,-0.22
2023-02-15T03:05:26.980Z,-0.17
2023-02-15T03:07:53.332Z,-0.11
2023-02-15T03:10:20.259Z,-0.11
2023-02-15T03:12:46.797Z,-0.23
2023-02-15T03:15:20.089Z,-0.20
2023-02-15T03:17:49.138Z,-0.21
2023-02-15T03:20:19.030Z,-0.21
2023-02-15T03:23:05.383Z,-0.19
2023-02-15T03:25:35.683Z,-0.25
2023-02-15T03:28:04.639Z,-0.25
2023-02-15T03:30:32.441Z,-0.22
2023-02-15T03:32:59.910Z,-0.23
2023-02-15T03:35:27.088Z,-0.24
2023-02-15T03:37:59.848Z,-0.24
2023-02-15T03:41:10.365Z,-0.28
2023-02-15T03:43:55.362Z,-0.26
2023-02-15T03:46:29.423Z,-0.24
2023-02-15T03:48:58.529Z,-0.23
2023-02-15T03:51:34.484Z,-0.24
2023-02-15T03:54:35.057Z,-0.42
2023-02-15T03:57:25.044Z,-0.45
2023-02-15T04:00:14.558Z,-0.41
2023-02-15T04:03:05.470Z,-0.42
2023-02-15T04:05:32.031Z,-0.47
2023-02-15T04:07:58.395Z,-0.51
2023-02-15T04:10:43.645Z,-0.56
2023-02-15T04:13:09.980Z,-0.50
2023-02-15T04:15:55.069Z,-0.47
2023-02-15T04:18:21.421Z,-0.46
2023-02-15T04:21:06.391Z,-0.46
2023-02-15T04:23:51.128Z,-0.49
2023-02-15T04:26:17.593Z,-0.50
2023-02-15T04:28:43.953Z,-0.52
2023-02-15T04:31:10.323Z,-0.53
2023-02-15T04:33:36.951Z,-0.54
2023-02-15T04:36:04.901Z,-0.54
2023-02-15T04:38:31.277Z,-0.58
2023-02-15T04:40:57.759Z,-0.61
2023-02-15T04:43:24.160Z,-0.62
2023-02-15T04:45:51.476Z,-0.63
2023-02-15T04:48:18.400Z,-0.66
2023-02-15T04:50:45.231Z,-0.70
2023-02-15T04:53:11.864Z,-0.73
2023-02-15T04:55:38.234Z,-0.74
2023-02-15T04:58:04.569Z,-0.74
2023-02-15T05:00:30.954Z,-0.76
2023-02-15T05:02:57.302Z,-0.76
2023-02-15T05:05:23.647Z,-0.76
2023-02-15T05:07:50.070Z,-0.74
2023-02-15T05:10:16.695Z,-0.75
2023-02-15T05:12:43.030Z,-0.75
2023-02-15T05:15:09.865Z,-0.78
2023-02-15T05:17:36.444Z,-0.81
2023-02-15T05:20:03.098Z,-0.83
2023-02-15T05:22:29.452Z,-0.90
2023-02-15T05:25:18.768Z,-0.91
2023-02-15T05:28:05.249Z,-0.90
2023-02-15T05:30:32.105Z,-0.94
2023-02-15T05:32:58.538Z,-0.96
2023-02-15T05:35:25.002Z,-0.95
2023-02-15T05:37:51.426Z,-0.94
2023-02-15T05:40:17.859Z,-0.97
2023-02-15T05:42:44.227Z,-0.97
2023-02-15T05:45:10.907Z,-0.96
2023-02-15T05:47:37.277Z,-0.98
2023-02-15T05:50:03.803Z,-1.00
2023-02-15T05:52:30.231Z,-1.04
2023-02-15T05:54:56.589Z,-1.02
2023-02-15T05:57:22.948Z,-0.99
2023-02-15T05:59:49.514Z,-1.01
2023-02-15T06:02:15.890Z,-1.02
2023-02-15T06:04:42.335Z,-1.05
2023-02-15T06:07:08.872Z,-1.08
2023-02-15T06:09:35.206Z,-1.10
2023-02-15T06:12:01.586Z,-1.10
2023-02-15T06:14:28.172Z,-1.08
2023-02-15T06:16:54.511Z,-1.12
2023-02-15T06:19:21.908Z,-1.12
2023-02-15T06:21:48.430Z,-1.18
2023-02-15T06:24:14.771Z,-1.20
2023-02-15T06:26:41.187Z,-1.19
2023-02-15T06:29:07.588Z,-1.21
2023-02-15T06:31:34.004Z,-1.20
2023-02-15T06:34:03.426Z,-1.22
2023-02-15T06:36:29.997Z,-1.25
2023-02-15T06:38:56.615Z,-1.22
2023-02-15T06:41:22.995Z,-1.19
2023-02-15T06:43:49.487Z,-1.18
2023-02-15T06:46:15.889Z,-1.18
2023-02-15T06:48:42.327Z,-1.20
2023-02-15T06:51:08.911Z,-1.13
2023-02-15T06:53:36.521Z,-1.14
2023-02-15T06:56:10.370Z,-1.17
2023-02-15T06:58:37.693Z,-1.15
2023-02-15T07:01:04.344Z,-1.15
2023-02-15T07:03:31.114Z,-1.14
2023-02-15T07:05:58.432Z,-1.13
2023-02-15T07:08:25.327Z,-1.13
2023-02-15T07:10:52.593Z,-1.12
2023-02-15T07:13:18.967Z,-1.11
2023-02-15T07:15:45.930Z,-1.11
2023-02-15T07:18:12.332Z,-1.11
2023-02-15T07:20:38.748Z,-1.08
2023-02-15T07:23:05.595Z,-1.04
2023-02-15T07:25:32.328Z,-1.03
2023-02-15T07:27:59.438Z,-0.97
2023-02-15T07:30:25.853Z,-0.93
2023-02-15T07:33:14.966Z,-0.87
2023-02-15T07:35:58.722Z,-0.83
2023-02-15T07:38:26.061Z,-0.83
2023-02-15T07:40:52.455Z,-0.81
2023-02-15T07:43:18.860Z,-0.78
2023-02-15T07:45:45.533Z,-0.76
2023-02-15T07:48:11.884Z,-0.71
2023-02-15T07:50:38.267Z,-0.64
2023-02-15T07:53:05.026Z,-0.58
2023-02-15T07:55:31.377Z,-0.51
2023-02-15T07:57:57.720Z,-0.47
2023-02-15T08:00:25.772Z,-0.41
2023-02-15T08:03:13.892Z,-0.34
2023-02-15T08:05:44.822Z,-0.30
2023-02-15T08:08:29.856Z,-0.26
2023-02-15T08:11:33.873Z,-0.24
2023-02-15T08:14:12.717Z,-0.20
2023-02-15T08:16:56.725Z,-0.17
2023-02-15T08:19:28.402Z,-0.12
2023-02-15T08:21:59.511Z,-0.08
2023-02-15T08:24:27.758Z,-0.03
2023-02-15T08:26:54.262Z,0.05
2023-02-15T08:29:23.562Z,0.07
2023-02-15T08:31:51.068Z,0.09
2023-02-15T08:34:19.049Z,0.14
2023-02-15T08:36:48.271Z,0.19
2023-02-15T08:39:15.229Z,0.22
2023-02-15T08:41:45.685Z,0.27
2023-02-15T08:44:12.408Z,0.32
2023-02-15T08:46:40.747Z,0.36
2023-02-15T08:49:07.401Z,0.42
2023-02-15T08:51:35.468Z,0.51
2023-02-15T08:54:10.386Z,0.65
2023-02-15T08:56:38.778Z,1.02
2023-02-15T08:59:05.321Z,1.22
2023-02-15T09:01:33.293Z,1.39
2023-02-15T09:04:01.490Z,1.51
2023-02-15T09:06:28.028Z,1.60
2023-02-15T09:08:55.003Z,1.67
2023-02-15T09:11:24.729Z,1.65
2023-02-15T09:13:55.057Z,1.69
2023-02-15T09:16:22.061Z,1.65
2023-02-15T09:18:48.696Z,1.73
2023-02-15T09:21:19.741Z,1.94
2023-02-15T09:23:47.297Z,2.16
2023-02-15T09:26:15.155Z,2.43
2023-02-15T09:28:41.778Z,2.51
2023-02-15T09:31:16.216Z,2.61
2023-02-15T09:33:43.371Z,2.72
2023-02-15T09:36:15.813Z,2.79
2023-02-15T09:38:42.361Z,2.96
2023-02-15T09:41:14.769Z,3.12
2023-02-15T09:44:24.766Z,3.23
2023-02-15T09:47:28.667Z,3.38
2023-02-15T09:50:04.294Z,3.47
2023-02-15T09:52:49.231Z,3.65
2023-02-15T09:55:50.042Z,3.79
2023-02-15T09:58:41.275Z,3.87
2023-02-15T10:01:20.452Z,4.04
2023-02-15T10:04:11.355Z,4.17
2023-02-15T10:07:07.497Z,4.31
2023-02-15T10:09:52.272Z,4.40
2023-02-15T10:12:37.445Z,4.51
2023-02-15T10:15:22.134Z,4.59
2023-02-15T10:17:58.945Z,4.71
2023-02-15T10:20:40.571Z,4.88
2023-02-15T10:23:28.552Z,4.94
2023-02-15T10:26:16.901Z,5.12
2023-02-15T10:28:52.594Z,5.21
2023-02-15T10:31:28.885Z,5.31
2023-02-15T10:34:16.422Z,5.44
2023-02-15T10:37:11.723Z,5.62
2023-02-15T10:40:06.195Z,5.72
2023-02-15T10:42:38.448Z,5.71
2023-02-15T10:45:24.953Z,5.78
2023-02-15T10:48:09.671Z,5.87
2023-02-15T10:50:40.854Z,5.98
2023-02-15T10:53:16.270Z,6.09
2023-02-15T10:56:23.343Z,6.27
2023-02-15T10:59:23.900Z,6.42
2023-02-15T11:01:52.611Z,6.46
2023-02-15T11:04:44.063Z,6.59
2023-02-15T11:07:28.962Z,6.80
2023-02-15T11:10:07.980Z,6.93
2023-02-15T11:12:34.402Z,7.09
2023-02-15T11:15:05.477Z,7.14
2023-02-15T11:17:36.701Z,7.48
2023-02-15T11:20:28.269Z,7.68
2023-02-15T11:22:54.687Z,7.86
2023-02-15T11:25:25.225Z,7.89
2023-02-15T11:27:51.652Z,7.86
2023-02-15T11:30:21.487Z,7.90
2023-02-15T11:32:51.019Z,8.02
2023-02-15T11:35:28.282Z,8.18
2023-02-15T11:38:17.813Z,8.29
2023-02-15T11:40:46.578Z,8.33
2023-02-15T11:43:16.419Z,8.25
2023-02-15T11:45:42.817Z,8.32
2023-02-15T11:48:10.966Z,8.40
2023-02-15T11:50:37.391Z,8.28
2023-02-15T11:53:12.145Z,8.32
2023-02-15T11:55:38.546Z,8.46
2023-02-15T11:58:30.125Z,8.47
2023-02-15T12:01:10.125Z,8.64
2023-02-15T12:03:42.795Z,8.67
2023-02-15T12:06:14.590Z,8.79
2023-02-15T12:08:43.070Z,9.07
2023-02-15T12:11:22.172Z,9.05
2023-02-15T12:14:00.602Z,9.07
2023-02-15T12:16:28.323Z,9.07
2023-02-15T12:18:57.047Z,9.10
2023-02-15T12:21:31.772Z,9.26
2023-02-15T12:24:01.548Z,9.35
2023-02-15T12:26:29.668Z,9.41
2023-02-15T12:28:59.586Z,9.33
2023-02-15T12:31:27.821Z,9.51
2023-02-15T12:33:55.564Z,9.65
2023-02-15T12:36:31.259Z,9.68
2023-02-15T12:39:04.661Z,9.65
2023-02-15T12:41:31.058Z,9.65
2023-02-15T12:44:16.687Z,9.73
2023-02-15T12:46:43.142Z,9.70
2023-02-15T12:49:20.926Z,9.53
2023-02-15T12:52:01.621Z,9.98
2023-02-15T12:54:35.349Z,9.94
2023-02-15T12:57:13.381Z,9.81
2023-02-15T12:59:49.409Z,9.68
2023-02-15T13:02:37.990Z,9.74
2023-02-15T13:05:10.574Z,9.97
2023-02-15T13:07:36.954Z,9.97
2023-02-15T13:10:03.502Z,9.94
2023-02-15T13:12:31.625Z,9.96
2023-02-15T13:14:58.243Z,10.08
2023-02-15T13:17:30.272Z,10.39
2023-02-15T13:20:09.631Z,10.27
2023-02-15T13:22:44.192Z,10.55
2023-02-15T13:25:14.186Z,10.71
2023-02-15T13:27:41.237Z,10.48
2023-02-15T13:30:36.038Z,10.37
2023-02-15T13:33:10.023Z,10.39
2023-02-15T13:35:50.715Z,10.35
2023-02-15T13:38:20.107Z,10.20
2023-02-15T13:40:52.092Z,10.22
2023-02-15T13:43:46.994Z,10.24
2023-02-15T13:46:32.398Z,10.21
2023-02-15T13:49:25.391Z,10.05
2023-02-15T13:52:10.069Z,10.05
2023-02-15T13:54:48.597Z,10.06
2023-02-15T13:57:34.370Z,10.33
2023-02-15T14:00:19.121Z,10.36
2023-02-15T14:03:10.826Z,10.42
2023-02-15T14:05:42.925Z,10.31
2023-02-15T14:08:32.735Z,10.59
2023-02-15T14:11:08.880Z,10.74
2023-02-15T14:13:57.724Z,10.76
2023-02-15T14:17:07.201Z,10.52
2023-02-15T14:19:46.906Z,10.32
2023-02-15T14:22:13.607Z,10.23
2023-02-15T14:24:45.355Z,10.12
2023-02-15T14:27:24.336Z,10.23
2023-02-15T14:30:01.068Z,10.30
2023-02-15T14:32:33.580Z,10.25
2023-02-15T14:35:04.862Z,10.06
2023-02-15T14:37:41.071Z,10.17
2023-02-15T14:40:50.047Z,10.26
2023-02-15T14:43:43.032Z,10.10
2023-02-15T14:46:32.498Z,10.04
2023-02-15T14:49:13.899Z,9.97
2023-02-15T14:51:50.369Z,9.91
2023-02-15T14:54:19.774Z,9.79
2023-02-15T14:56:46.609Z,9.77
2023-02-15T14:59:12.947Z,9.71
2023-02-15T15:01:39.653Z,9.68
2023-02-15T15:04:10.862Z,9.63
2023-02-15T15:06:38.712Z,9.55
2023-02-15T15:09:26.565Z,9.48
2023-02-15T15:11:53.837Z,9.39
2023-02-15T15:14:32.658Z,9.35
2023-02-15T15:17:00.211Z,9.29
2023-02-15T15:19:52.733Z,9.24
2023-02-15T15:22:19.784Z,9.22
2023-02-15T15:24:46.248Z,9.08
2023-02-15T15:27:54.957Z,9.04
2023-02-15T15:30:24.569Z,9.06
2023-02-15T15:32:53.729Z,9.07
2023-02-15T15:35:57.729Z,9.07
2023-02-15T15:38:48.758Z,8.97
2023-02-15T15:41:18.997Z,8.94
2023-02-15T15:44:13.693Z,8.87
2023-02-15T15:47:07.337Z,8.89
2023-02-15T15:49:33.826Z,8.87
2023-02-15T15:52:04.506Z,8.84
2023-02-15T15:54:31.123Z,8.75
2023-02-15T15:56:59.273Z,8.62
2023-02-15T15:59:27.513Z,8.50
2023-02-15T16:01:53.976Z,8.41
2023-02-15T16:04:27.032Z,8.41
2023-02-15T16:06:53.457Z,8.38
2023-02-15T16:09:22.179Z,8.32
2023-02-15T16:11:53.353Z,8.22
2023-02-15T16:14:32.882Z,8.16
2023-02-15T16:17:00.714Z,8.13
2023-02-15T16:19:29.125Z,8.06
2023-02-15T16:21:55.765Z,8.01
2023-02-15T16:24:25.927Z,7.92
2023-02-15T16:27:04.586Z,7.83
2023-02-15T16:29:32.628Z,7.69
2023-02-15T16:32:06.871Z,7.69
2023-02-15T16:34:33.661Z,7.58
2023-02-15T16:37:16.485Z,7.51
2023-02-15T16:39:43.277Z,7.27
2023-02-15T16:42:10.275Z,7.03
2023-02-15T16:44:36.658Z,6.79
2023-02-15T16:47:03.066Z,6.57
2023-02-15T16:49:30.094Z,6.32
2023-02-15T16:52:00.563Z,6.13
2023-02-15T16:54:26.964Z,5.97
2023-02-15T16:56:53.399Z,5.86
2023-02-15T16:59:44.425Z,5.77
2023-02-15T17:02:37.233Z,5.76
2023-02-15T17:05:12.720Z,6.25
2023-02-15T17:07:43.390Z,6.53
2023-02-15T17:10:33.943Z,6.64
2023-02-15T17:13:05.126Z,6.67
2023-02-15T17:15:35.926Z,6.67
2023-02-15T17:18:16.485Z,6.69
2023-02-15T17:20:43.195Z,6.69
2023-02-15T17:23:31.408Z,6.74
2023-02-15T17:25:58.569Z,6.67
2023-02-15T17:28:26.428Z,6.44
2023-02-15T17:30:53.425Z,6.13
2023-02-15T17:33:21.228Z,5.94
2023-02-15T17:36:03.703Z,5.67
2023-02-15T17:38:30.093Z,5.43
2023-02-15T17:40:57.284Z,5.22
2023-02-15T17:43:23.656Z,5.08
2023-02-15T17:45:50.877Z,4.92
2023-02-15T17:48:21.968Z,4.79
2023-02-15T17:50:48.337Z,4.65
2023-02-15T17:53:16.874Z,4.55
2023-02-15T17:55:43.499Z,4.54
2023-02-15T17:58:11.952Z,4.52
2023-02-15T18:01:14.787Z,4.42
2023-02-15T18:04:07.007Z,4.37
2023-02-15T18:06:52.482Z,4.32
2023-02-15T18:09:38.465Z,4.26
2023-02-15T18:12:21.115Z,4.18
2023-02-15T18:14:47.615Z,4.14
2023-02-15T18:17:14.146Z,4.13
2023-02-15T18:19:41.213Z,4.07
2023-02-15T18:22:15.614Z,4.01
2023-02-15T18:24:42.171Z,3.94
2023-02-15T18:27:08.557Z,3.89
2023-02-15T18:29:34.929Z,3.98
2023-02-15T18:32:01.409Z,4.05
2023-02-15T18:34:32.884Z,4.29
2023-02-15T18:37:00.769Z,4.42
2023-02-15T18:39:30.116Z,4.42
2023-02-15T18:41:56.569Z,4.36
2023-02-15T18:44:23.164Z,4.22
2023-02-15T18:46:49.735Z,4.05
2023-02-15T18:49:16.080Z,3.91
2023-02-15T18:51:43.241Z,3.85
2023-02-15T18:54:20.249Z,3.82
2023-02-15T18:56:49.255Z,3.78
2023-02-15T18:59:16.684Z,3.68
2023-02-15T19:01:43.330Z,3.63
2023-02-15T19:04:09.722Z,3.63
2023-02-15T19:06:36.159Z,3.64
2023-02-15T19:09:02.569Z,3.58
2023-02-15T19:11:29.626Z,3.47
2023-02-15T19:13:56.008Z,3.45
2023-02-15T19:16:26.514Z,3.36
2023-02-15T19:18:53.014Z,3.30
2023-02-15T19:21:19.422Z,3.26
2023-02-15T19:23:59.513Z,3.21
2023-02-15T19:26:39.692Z,3.15
2023-02-15T19:29:10.928Z,3.15
2023-02-15T19:31:37.372Z,3.20
2023-02-15T19:34:16.887Z,3.20
2023-02-15T19:36:44.203Z,3.25
2023-02-15T19:39:33.665Z,3.25
2023-02-15T19:42:00.098Z,3.20
2023-02-15T19:44:26.511Z,3.14
2023-02-15T19:46:52.943Z,3.08
2023-02-15T19:49:19.333Z,3.00
2023-02-15T19:51:45.985Z,2.90
2023-02-15T19:54:31.850Z,2.82
2023-02-15T19:56:58.296Z,2.73
2023-02-15T19:59:29.635Z,2.67
2023-02-15T20:01:56.310Z,2.63
2023-02-15T20:04:23.159Z,2.58
2023-02-15T20:06:50.036Z,2.56
2023-02-15T20:09:40.693Z,2.52
2023-02-15T20:12:19.715Z,2.55
2023-02-15T20:14:46.166Z,2.63
2023-02-15T20:17:12.542Z,2.63
2023-02-15T20:19:40.129Z,2.65
2023-02-15T20:22:07.090Z,2.64
2023-02-15T20:24:33.507Z,2.57
2023-02-15T20:27:00.200Z,2.45
2023-02-15T20:29:26.586Z,2.32
2023-02-15T20:31:55.386Z,2.32
2023-02-15T20:34:21.973Z,2.26
2023-02-15T20:36:48.351Z,2.20
2023-02-15T20:39:16.514Z,2.17
2023-02-15T20:41:48.824Z,2.13
2023-02-15T20:44:29.172Z,2.07
2023-02-15T20:46:57.572Z,2.05
2023-02-15T20:49:24.497Z,2.03
2023-02-15T20:51:52.319Z,1.97
2023-02-15T20:54:23.425Z,1.93
2023-02-15T20:56:49.918Z,1.90
2023-02-15T20:59:36.873Z,1.88
2023-02-15T21:02:20.062Z,1.84
2023-02-15T21:04:46.633Z,1.78
2023-02-15T21:07:20.236Z,1.75
2023-02-15T21:09:46.702Z,1.75
2023-02-15T21:12:17.674Z,1.71
2023-02-15T21:14:44.223Z,1.68
2023-02-15T21:17:12.039Z,1.70
2023-02-15T21:19:40.782Z,1.68
2023-02-15T21:22:09.712Z,1.70
2023-02-15T21:24:36.100Z,1.68
2023-02-15T21:27:03.012Z,1.65
2023-02-15T21:29:29.702Z,1.63
2023-02-15T21:31:58.315Z,1.59
2023-02-15T21:34:24.819Z,1.59
2023-02-15T21:36:51.331Z,1.59
2023-02-15T21:39:24.915Z,1.57
2023-02-15T21:42:12.426Z,1.53
2023-02-15T21:44:57.564Z,1.47
2023-02-15T21:47:47.489Z,1.45
2023-02-15T21:50:40.702Z,1.40
2023-02-15T21:53:09.839Z,1.42
2023-02-15T21:55:36.212Z,1.45
2023-02-15T21:58:02.691Z,1.56
2023-02-15T22:00:29.514Z,2.16
2023-02-15T22:02:58.026Z,2.76
2023-02-15T22:05:33.139Z,3.20
2023-02-15T22:07:59.861Z,3.53
2023-02-15T22:10:31.514Z,3.89
2023-02-15T22:13:00.159Z,4.04
2023-02-15T22:15:27.287Z,4.09
2023-02-15T22:17:53.984Z,4.12
2023-02-15T22:20:22.005Z,4.18
2023-02-15T22:22:48.630Z,4.18
2023-02-15T22:25:16.467Z,4.24
2023-02-15T22:27:42.968Z,4.26
2023-02-15T22:30:33.522Z,4.26
2023-02-15T22:33:00.358Z,4.26
2023-02-15T22:35:27.631Z,4.25
2023-02-15T22:37:54.164Z,4.23
2023-02-15T22:40:20.802Z,4.21
2023-02-15T22:42:49.281Z,4.20
2023-02-15T22:45:17.214Z,4.18
2023-02-15T22:47:43.569Z,4.17
2023-02-15T22:50:24.232Z,4.16
2023-02-15T22:52:50.730Z,4.12
2023-02-15T22:55:18.090Z,4.14
2023-02-15T22:57:45.641Z,4.13
2023-02-15T23:00:17.286Z,4.12
2023-02-15T23:02:43.900Z,4.13
2023-02-15T23:05:16.951Z,4.11
2023-02-15T23:07:43.411Z,4.12
2023-02-15T23:10:21.015Z,4.11
2023-02-15T23:13:10.150Z,4.09
2023-02-15T23:15:36.686Z,4.12
2023-02-15T23:18:19.243Z,4.12
2023-02-15T23:20:46.889Z,4.13
2023-02-15T23:23:13.599Z,4.13
2023-02-15T23:25:40.383Z,4.14
2023-02-15T23:28:16.373Z,4.13
2023-02-15T23:30:42.721Z,4.15
2023-02-15T23:33:11.364Z,4.16
2023-02-15T23:35:37.958Z,4.16
2023-02-15T23:38:06.180Z,4.11
2023-02-15T23:40:51.249Z,4.10
2023-02-15T23:43:20.472Z,4.12
2023-02-15T23:45:46.871Z,4.15
2023-02-15T23:48:31.538Z,4.14
2023-02-15T23:50:58.588Z,4.13
2023-02-15T23:53:25.115Z,4.12
2023-02-15T23:55:51.483Z,4.12
2023-02-15T23:58:19.468Z,4.13
